createdAt,value
2022-11-09T00:01:23.207Z,100420.22
2022-11-09T00:04:04.348Z,100422.09
2022-11-09T00:06:33.139Z,100420.31
2022-11-09T00:09:08.182Z,100423.88
2022-11-09T00:11:37.892Z,100428.03
2022-11-09T00:14:05.326Z,100425.59
2022-11-09T00:16:32.432Z,100427.44
2022-11-09T00:18:59.570Z,100421.56
2022-11-09T00:21:26.790Z,100427.19
2022-11-09T00:23:54.559Z,100416.78
2022-11-09T00:26:22.368Z,100422.16
2022-11-09T00:28:50.409Z,100424.00
2022-11-09T00:31:21.309Z,100425.91
2022-11-09T00:33:54.194Z,100416.00
2022-11-09T00:36:23.738Z,100423.22
2022-11-09T00:38:55.134Z,100417.22
2022-11-09T00:41:22.894Z,100421.19
2022-11-09T00:43:50.833Z,100419.78
2022-11-09T00:46:21.354Z,100423.47
2022-11-09T00:48:48.475Z,100420.22
2022-11-09T00:51:15.646Z,100415.91
2022-11-09T00:53:43.450Z,100417.94
2022-11-09T00:56:13.558Z,100421.03
2022-11-09T00:58:43.609Z,100413.41
2022-11-09T01:01:16.519Z,100405.78
2022-11-09T01:03:51.472Z,100416.63
2022-11-09T01:06:24.344Z,100413.78
2022-11-09T01:08:52.474Z,100405.03
2022-11-09T01:11:24.233Z,100409.25
2022-11-09T01:13:55.475Z,100410.72
2022-11-09T01:16:24.446Z,100402.22
2022-11-09T01:18:58.893Z,100403.56
2022-11-09T01:21:27.411Z,100400.84
2022-11-09T01:23:58.324Z,100402.34
2022-11-09T01:26:25.591Z,100392.03
2022-11-09T01:28:52.994Z,100396.34
2022-11-09T01:31:22.129Z,100380.97
2022-11-09T01:33:55.097Z,100388.94
2022-11-09T01:36:35.193Z,100383.31
2022-11-09T01:39:11.185Z,100389.78
2022-11-09T01:41:38.183Z,100383.97
2022-11-09T01:44:40.371Z,100391.44
2022-11-09T01:47:21.865Z,100384.28
2022-11-09T01:50:00.214Z,100377.31
2022-11-09T01:52:40.172Z,100382.56
2022-11-09T01:55:16.740Z,100386.16
2022-11-09T01:57:54.789Z,100383.78
2022-11-09T02:00:21.905Z,100383.19
2022-11-09T02:02:58.443Z,100385.03
2022-11-09T02:05:33.250Z,100387.53
2022-11-09T02:08:04.323Z,100377.59
2022-11-09T02:11:08.917Z,100370.50
2022-11-09T02:13:49.498Z,100379.34
2022-11-09T02:16:19.524Z,100368.69
2022-11-09T02:18:55.729Z,100364.97
2022-11-09T02:21:27.245Z,100360.44
2022-11-09T02:23:54.819Z,100351.25
2022-11-09T02:26:38.794Z,100349.88
2022-11-09T02:29:10.186Z,100342.34
2022-11-09T02:31:42.773Z,100356.03
2022-11-09T02:34:20.285Z,100356.97
2022-11-09T02:36:47.368Z,100351.97
2022-11-09T02:39:20.092Z,100351.97
2022-11-09T02:42:03.341Z,100346.09
2022-11-09T02:44:37.595Z,100350.47
2022-11-09T02:47:04.564Z,100356.31
2022-11-09T02:49:31.556Z,100358.16
2022-11-09T02:51:58.602Z,100350.34
2022-11-09T02:54:25.584Z,100350.81
2022-11-09T02:56:52.536Z,100359.09
2022-11-09T02:59:22.855Z,100356.97
2022-11-09T03:01:49.778Z,100350.81
2022-11-09T03:04:16.966Z,100355.88
2022-11-09T03:06:44.325Z,100355.66
2022-11-09T03:09:13.079Z,100356.13
2022-11-09T03:11:42.002Z,100355.75
2022-11-09T03:14:09.829Z,100354.19
2022-11-09T03:16:40.366Z,100356.91
2022-11-09T03:19:07.822Z,100356.31
2022-11-09T03:21:35.259Z,100354.03
2022-11-09T03:24:02.443Z,100344.41
2022-11-09T03:26:29.447Z,100344.13
2022-11-09T03:28:56.382Z,100336.69
2022-11-09T03:31:23.347Z,100329.00
2022-11-09T03:33:50.325Z,100328.06
2022-11-09T03:36:17.312Z,100320.03
2022-11-09T03:38:44.263Z,100337.59
2022-11-09T03:41:11.197Z,100342.59
2022-11-09T03:43:38.149Z,100341.31
2022-11-09T03:46:05.125Z,100337.63
2022-11-09T03:48:32.092Z,100353.28
2022-11-09T03:50:58.991Z,100355.84
2022-11-09T03:53:25.964Z,100363.94
2022-11-09T03:55:52.876Z,100367.75
2022-11-09T03:58:19.817Z,100355.78
2022-11-09T04:00:47.619Z,100353.28
2022-11-09T04:03:16.106Z,100351.97
2022-11-09T04:05:43.081Z,100363.41
2022-11-09T04:08:13.163Z,100371.34
2022-11-09T04:10:40.082Z,100367.78
2022-11-09T04:13:07.068Z,100375.69
2022-11-09T04:15:34.227Z,100376.09
2022-11-09T04:18:03.567Z,100366.72
2022-11-09T04:20:34.616Z,100369.19
2022-11-09T04:23:05.713Z,100365.34
2022-11-09T04:25:36.926Z,100365.09
2022-11-09T04:28:07.086Z,100367.44
2022-11-09T04:30:37.010Z,100371.28
2022-11-09T04:33:05.610Z,100361.00
2022-11-09T04:35:34.199Z,100367.78
2022-11-09T04:38:06.474Z,100362.63
2022-11-09T04:40:35.861Z,100358.13
2022-11-09T04:43:06.213Z,100355.22
2022-11-09T04:45:35.142Z,100358.00
2022-11-09T04:48:05.963Z,100359.19
2022-11-09T04:50:33.724Z,100370.06
2022-11-09T04:53:14.125Z,100365.91
2022-11-09T04:55:41.863Z,100366.09
2022-11-09T04:58:09.498Z,100376.50
2022-11-09T05:00:41.306Z,100370.66
2022-11-09T05:03:08.796Z,100358.59
2022-11-09T05:05:38.334Z,100362.81
2022-11-09T05:08:06.566Z,100363.00
2022-11-09T05:10:34.726Z,100370.19
2022-11-09T05:13:10.176Z,100380.63
2022-11-09T05:15:37.744Z,100371.38
2022-11-09T05:18:05.886Z,100379.72
2022-11-09T05:20:33.809Z,100377.78
2022-11-09T05:23:20.795Z,100373.78
2022-11-09T05:25:48.172Z,100377.06
2022-11-09T05:28:15.411Z,100366.25
2022-11-09T05:30:42.571Z,100373.94
2022-11-09T05:33:09.751Z,100378.53
2022-11-09T05:35:36.795Z,100376.25
2022-11-09T05:38:03.844Z,100375.22
2022-11-09T05:40:32.440Z,100379.84
2022-11-09T05:42:59.922Z,100381.81
2022-11-09T05:45:42.518Z,100386.16
2022-11-09T05:48:12.621Z,100386.09
2022-11-09T05:50:43.684Z,100374.53
2022-11-09T05:53:12.814Z,100374.56
2022-11-09T05:55:40.218Z,100381.22
2022-11-09T05:58:08.037Z,100378.28
2022-11-09T06:00:36.097Z,100383.94
2022-11-09T06:03:13.224Z,100385.22
2022-11-09T06:05:44.338Z,100379.63
2022-11-09T06:08:15.518Z,100390.44
2022-11-09T06:10:43.183Z,100392.78
2022-11-09T06:13:15.956Z,100398.56
2022-11-09T06:15:44.499Z,100398.00
2022-11-09T06:18:11.904Z,100394.81
2022-11-09T06:20:40.172Z,100397.44
2022-11-09T06:23:13.528Z,100384.34
2022-11-09T06:25:43.911Z,100399.56
2022-11-09T06:28:10.915Z,100397.88
2022-11-09T06:30:38.063Z,100403.13
2022-11-09T06:33:07.912Z,100407.59
2022-11-09T06:35:35.465Z,100417.41
2022-11-09T06:38:05.300Z,100414.41
2022-11-09T06:40:37.259Z,100411.88
2022-11-09T06:43:07.207Z,100414.25
2022-11-09T06:45:34.790Z,100413.00
2022-11-09T06:48:04.757Z,100412.75
2022-11-09T06:50:37.056Z,100408.34
2022-11-09T06:53:10.693Z,100412.56
2022-11-09T06:55:38.587Z,100417.94
2022-11-09T06:58:18.735Z,100422.09
2022-11-09T07:00:46.183Z,100425.06
2022-11-09T07:03:19.424Z,100419.34
2022-11-09T07:05:56.414Z,100417.44
2022-11-09T07:08:23.505Z,100425.22
2022-11-09T07:10:50.506Z,100423.28
2022-11-09T07:13:17.654Z,100429.28
2022-11-09T07:15:44.929Z,100434.69
2022-11-09T07:18:13.220Z,100438.50
2022-11-09T07:20:40.421Z,100439.53
2022-11-09T07:23:07.579Z,100432.44
2022-11-09T07:25:37.217Z,100429.50
2022-11-09T07:28:08.569Z,100426.50
2022-11-09T07:30:39.423Z,100425.81
2022-11-09T07:33:22.858Z,100416.19
2022-11-09T07:35:50.273Z,100416.41
2022-11-09T07:38:19.634Z,100404.47
2022-11-09T07:40:46.892Z,100407.53
2022-11-09T07:43:14.178Z,100385.03
2022-11-09T07:45:41.505Z,100373.50
2022-11-09T07:48:12.272Z,100373.53
2022-11-09T07:50:41.159Z,100377.44
2022-11-09T07:53:14.578Z,100392.63
2022-11-09T07:55:42.604Z,100408.16
2022-11-09T07:58:15.673Z,100426.13
2022-11-09T08:00:44.225Z,100443.88
2022-11-09T08:03:11.895Z,100433.97
2022-11-09T08:05:39.727Z,100436.34
2022-11-09T08:08:10.875Z,100436.59
2022-11-09T08:10:39.584Z,100434.09
2022-11-09T08:13:13.594Z,100431.88
2022-11-09T08:15:42.407Z,100439.22
2022-11-09T08:18:16.501Z,100447.94
2022-11-09T08:22:53.818Z,100424.13
2022-11-09T08:25:20.818Z,100425.41
2022-11-09T08:27:47.883Z,100437.75
2022-11-09T08:30:21.339Z,100432.44
2022-11-09T08:32:49.564Z,100427.69
2022-11-09T08:35:21.930Z,100436.28
2022-11-09T08:37:51.759Z,100432.88
2022-11-09T08:40:24.467Z,100423.75
2022-11-09T08:42:53.450Z,100415.63
2022-11-09T08:45:21.552Z,100413.47
2022-11-09T08:47:48.672Z,100415.81
2022-11-09T08:50:16.410Z,100427.44
2022-11-09T08:52:43.724Z,100437.25
2022-11-09T08:55:10.936Z,100432.69
2022-11-09T08:57:38.149Z,100438.88
2022-11-09T09:00:06.726Z,100451.59
2022-11-09T09:02:34.256Z,100456.06
2022-11-09T09:05:12.608Z,100457.75
2022-11-09T09:07:39.784Z,100468.69
2022-11-09T09:10:13.215Z,100473.22
2022-11-09T09:12:40.552Z,100464.16
2022-11-09T09:15:08.794Z,100461.22
2022-11-09T09:17:36.083Z,100458.94
2022-11-09T09:20:04.243Z,100457.59
2022-11-09T09:22:32.373Z,100467.78
2022-11-09T09:24:59.908Z,100472.75
2022-11-09T09:27:29.347Z,100472.22
2022-11-09T09:30:00.324Z,100478.59
2022-11-09T09:32:27.669Z,100476.56
2022-11-09T09:34:54.999Z,100460.06
2022-11-09T09:37:22.309Z,100474.47
2022-11-09T09:39:49.417Z,100474.50
2022-11-09T09:42:30.601Z,100475.16
2022-11-09T09:45:21.699Z,100486.69
2022-11-09T09:48:40.398Z,100490.06
2022-11-09T09:51:28.605Z,100481.44
2022-11-09T09:54:27.060Z,100490.50
2022-11-09T09:56:59.908Z,100486.44
2022-11-09T09:59:48.392Z,100479.91
2022-11-09T10:02:29.862Z,100479.22
2022-11-09T10:05:03.415Z,100484.47
2022-11-09T10:08:04.314Z,100489.31
2022-11-09T10:11:16.310Z,100496.63
2022-11-09T10:14:28.337Z,100491.94
2022-11-09T10:17:41.200Z,100496.63
2022-11-09T10:20:53.534Z,100501.03
2022-11-09T10:24:11.340Z,100512.63
2022-11-09T10:26:54.402Z,100497.25
2022-11-09T10:30:04.065Z,100501.41
2022-11-09T10:32:33.036Z,100494.47
2022-11-09T10:35:35.463Z,100489.59
2022-11-09T10:38:03.011Z,100487.44
2022-11-09T10:41:24.957Z,100480.63
2022-11-09T10:43:52.133Z,100483.16
2022-11-09T10:46:21.322Z,100467.13
2022-11-09T10:48:48.694Z,100469.34
2022-11-09T10:51:55.227Z,100474.00
2022-11-09T10:54:28.123Z,100466.09
2022-11-09T10:57:22.936Z,100453.28
2022-11-09T11:00:04.170Z,100459.03
2022-11-09T11:02:31.092Z,100457.44
2022-11-09T11:05:07.571Z,100447.72
2022-11-09T11:07:40.477Z,100455.31
2022-11-09T11:10:18.219Z,100451.09
2022-11-09T11:13:36.499Z,100448.84
2022-11-09T11:16:35.419Z,100456.66
2022-11-09T11:19:41.701Z,100454.75
2022-11-09T11:22:29.717Z,100450.84
2022-11-09T11:25:24.168Z,100455.09
2022-11-09T11:28:30.335Z,100446.03
2022-11-09T11:31:46.932Z,100437.91
2022-11-09T11:35:16.398Z,100431.00
2022-11-09T11:38:36.655Z,100433.94
2022-11-09T11:42:14.863Z,100436.56
2022-11-09T11:45:40.736Z,100443.88
2022-11-09T11:49:01.067Z,100441.56
2022-11-09T11:51:43.695Z,100427.47
2022-11-09T11:55:26.658Z,100411.88
2022-11-09T11:58:41.282Z,100416.41
2022-11-09T12:01:53.404Z,100410.00
2022-11-09T12:05:15.162Z,100423.19
2022-11-09T12:07:59.560Z,100411.09
2022-11-09T12:11:16.507Z,100416.25
2022-11-09T12:14:36.237Z,100409.41
2022-11-09T12:17:50.322Z,100403.94
2022-11-09T12:20:58.866Z,100406.69
2022-11-09T12:24:16.772Z,100408.72
2022-11-09T12:27:40.560Z,100393.94
2022-11-09T12:31:19.896Z,100401.88
2022-11-09T12:35:02.045Z,100403.00
2022-11-09T12:37:39.503Z,100402.25
2022-11-09T12:40:35.545Z,100403.84
2022-11-09T12:43:25.772Z,100406.88
2022-11-09T12:45:55.076Z,100406.94
2022-11-09T12:48:46.906Z,100410.00
2022-11-09T12:51:21.131Z,100414.34
2022-11-09T12:54:28.086Z,100413.06
2022-11-09T12:57:40.273Z,100419.31
2022-11-09T13:00:28.715Z,100428.19
2022-11-09T13:03:16.183Z,100419.75
2022-11-09T13:05:47.580Z,100411.66
2022-11-09T13:09:21.605Z,100423.34
2022-11-09T13:11:53.872Z,100425.56
2022-11-09T13:17:24.604Z,100414.91
2022-11-09T13:19:55.308Z,100409.63
2022-11-09T13:22:26.272Z,100416.41
2022-11-09T13:25:22.840Z,100418.09
2022-11-09T13:27:57.827Z,100418.59
2022-11-09T13:30:43.566Z,100411.81
2022-11-09T13:33:24.892Z,100416.19
2022-11-09T13:36:42.241Z,100417.19
2022-11-09T13:39:32.753Z,100420.66
2022-11-09T13:42:12.514Z,100422.78
2022-11-09T13:44:59.084Z,100427.81
2022-11-09T13:47:34.778Z,100426.38
2022-11-09T13:50:08.772Z,100429.41
2022-11-09T13:52:52.698Z,100417.75
2022-11-09T13:55:42.685Z,100420.03
2022-11-09T13:58:33.549Z,100421.06
2022-11-09T14:01:00.572Z,100415.22
2022-11-09T14:03:31.687Z,100414.72
2022-11-09T14:06:02.634Z,100419.97
2022-11-09T14:08:40.487Z,100426.66
2022-11-09T14:11:49.730Z,100425.81
2022-11-09T14:14:57.632Z,100428.69
2022-11-09T14:17:58.458Z,100428.44
2022-11-09T14:20:52.217Z,100421.91
2022-11-09T14:23:29.877Z,100424.06
2022-11-09T14:27:11.208Z,100429.06
2022-11-09T14:29:49.025Z,100426.91
2022-11-09T14:32:30.358Z,100431.47
2022-11-09T14:35:26.619Z,100430.44
2022-11-09T14:37:58.895Z,100428.09
2022-11-09T14:40:29.729Z,100429.22
2022-11-09T14:43:16.698Z,100430.91
2022-11-09T14:46:00.362Z,100433.13
2022-11-09T14:48:29.870Z,100433.13
2022-11-09T14:51:04.758Z,100439.84
2022-11-09T14:54:18.762Z,100446.75
2022-11-09T14:56:47.061Z,100444.56
2022-11-09T14:59:30.496Z,100439.75
2022-11-09T15:02:08.057Z,100448.72
2022-11-09T15:05:05.017Z,100448.50
2022-11-09T15:07:36.506Z,100448.78
2022-11-09T15:10:17.681Z,100454.19
2022-11-09T15:12:55.005Z,100450.19
2022-11-09T15:15:27.842Z,100451.06
2022-11-09T15:17:55.541Z,100445.00
2022-11-09T15:20:32.172Z,100451.09
2022-11-09T15:23:23.066Z,100458.81
2022-11-09T15:25:50.489Z,100454.69
2022-11-09T15:28:26.635Z,100450.13
2022-11-09T15:30:56.861Z,100452.59
2022-11-09T15:34:20.564Z,100445.31
2022-11-09T15:36:55.452Z,100453.03
2022-11-09T15:39:24.365Z,100450.81
2022-11-09T15:41:51.469Z,100443.09
2022-11-09T15:44:20.592Z,100451.38
2022-11-09T15:47:05.146Z,100439.34
2022-11-09T15:49:32.182Z,100445.88
2022-11-09T15:51:59.394Z,100459.38
2022-11-09T15:54:26.458Z,100458.41
2022-11-09T15:56:53.748Z,100457.97
2022-11-09T15:59:26.815Z,100462.94
2022-11-09T16:01:54.543Z,100462.69
2022-11-09T16:04:23.315Z,100468.31
2022-11-09T16:06:50.427Z,100469.56
2022-11-09T16:09:17.644Z,100478.13
2022-11-09T16:11:44.658Z,100478.69
2022-11-09T16:14:11.680Z,100480.03
2022-11-09T16:16:38.914Z,100473.69
2022-11-09T16:19:05.977Z,100479.31
2022-11-09T16:21:33.065Z,100482.75
2022-11-09T16:24:00.194Z,100486.88
2022-11-09T16:26:30.004Z,100491.97
2022-11-09T16:28:56.965Z,100481.69
2022-11-09T16:31:48.073Z,100484.41
2022-11-09T16:34:11.454Z,100488.97
2022-11-09T16:36:46.426Z,100487.88
2022-11-09T16:39:18.755Z,100498.22
2022-11-09T16:41:50.232Z,100489.59
2022-11-09T16:44:23.750Z,100491.81
2022-11-09T16:46:52.038Z,100496.22
2022-11-09T16:49:19.214Z,100496.81
2022-11-09T16:51:46.234Z,100500.22
2022-11-09T16:54:13.247Z,100502.69
2022-11-09T16:56:40.317Z,100505.59
2022-11-09T16:59:07.356Z,100498.69
2022-11-09T17:01:34.453Z,100497.94
2022-11-09T17:04:01.586Z,100499.13
2022-11-09T17:06:28.681Z,100502.06
2022-11-09T17:08:59.066Z,100503.59
2022-11-09T17:11:26.210Z,100499.06
2022-11-09T17:13:59.202Z,100506.13
2022-11-09T17:16:27.123Z,100504.97
2022-11-09T17:18:57.183Z,100500.97
2022-11-09T17:21:27.524Z,100513.03
2022-11-09T17:23:56.992Z,100524.00
2022-11-09T17:26:26.254Z,100532.63
2022-11-09T17:28:53.443Z,100536.13
2022-11-09T17:31:23.790Z,100531.28
2022-11-09T17:33:50.774Z,100540.34
2022-11-09T17:36:35.218Z,100540.59
2022-11-09T17:39:06.376Z,100542.13
2022-11-09T17:41:33.434Z,100541.63
2022-11-09T17:44:02.043Z,100539.38
2022-11-09T17:46:29.042Z,100542.84
2022-11-09T17:48:56.049Z,100560.09
2022-11-09T17:51:24.304Z,100563.06
2022-11-09T17:53:51.832Z,100568.91
2022-11-09T17:56:18.920Z,100572.69
2022-11-09T17:58:47.084Z,100572.31
2022-11-09T18:01:19.830Z,100577.28
2022-11-09T18:03:47.190Z,100576.09
2022-11-09T18:06:19.982Z,100569.69
2022-11-09T18:09:03.557Z,100583.16
2022-11-09T18:11:34.807Z,100579.06
2022-11-09T18:14:01.889Z,100569.22
2022-11-09T18:16:28.855Z,100583.34
2022-11-09T18:19:04.292Z,100579.41
2022-11-09T18:21:33.394Z,100582.22
2022-11-09T18:24:00.596Z,100591.44
2022-11-09T18:26:27.809Z,100595.91
2022-11-09T18:28:57.073Z,100603.44
2022-11-09T18:31:24.544Z,100605.03
2022-11-09T18:33:51.737Z,100599.44
2022-11-09T18:36:21.505Z,100600.38
2022-11-09T18:38:53.902Z,100603.84
2022-11-09T18:41:23.631Z,100606.50
2022-11-09T18:43:53.921Z,100601.97
2022-11-09T18:46:22.440Z,100606.94
2022-11-09T18:48:53.984Z,100608.22
2022-11-09T18:51:21.452Z,100604.19
2022-11-09T18:53:49.581Z,100615.50
2022-11-09T18:56:24.373Z,100624.78
2022-11-09T18:58:55.026Z,100621.50
2022-11-09T19:01:25.712Z,100611.09
2022-11-09T19:03:58.973Z,100624.13
2022-11-09T19:06:39.495Z,100604.94
2022-11-09T19:09:31.349Z,100605.63
2022-11-09T19:12:04.396Z,100597.97
2022-11-09T19:14:31.656Z,100599.88
2022-11-09T19:17:04.622Z,100607.03
2022-11-09T19:19:31.629Z,100613.94
2022-11-09T19:21:59.671Z,100618.50
2022-11-09T19:24:28.695Z,100616.13
2022-11-09T19:29:37.997Z,100615.41
2022-11-09T19:32:11.128Z,100618.31
2022-11-09T19:34:38.189Z,100615.84
2022-11-09T19:37:05.304Z,100611.09
2022-11-09T19:39:34.626Z,100617.69
2022-11-09T19:42:03.073Z,100616.28
2022-11-09T19:44:33.919Z,100624.16
2022-11-09T19:47:01.215Z,100623.78
2022-11-09T19:49:28.394Z,100632.03
2022-11-09T19:52:07.760Z,100624.03
2022-11-09T19:54:35.529Z,100627.09
2022-11-09T19:57:02.931Z,100626.16
2022-11-09T19:59:30.497Z,100634.59
2022-11-09T20:01:57.902Z,100634.72
2022-11-09T20:04:25.372Z,100629.72
2022-11-09T20:06:52.756Z,100637.41
2022-11-09T20:09:19.835Z,100639.16
2022-11-09T20:12:06.148Z,100650.56
2022-11-09T20:14:33.112Z,100656.94
2022-11-09T20:17:03.690Z,100653.91
2022-11-09T20:19:31.023Z,100654.03
2022-11-09T20:21:58.164Z,100661.78
2022-11-09T20:24:32.626Z,100658.59
2022-11-09T20:27:00.032Z,100666.06
2022-11-09T20:29:27.106Z,100668.69
2022-11-09T20:31:54.238Z,100671.31
2022-11-09T20:34:21.347Z,100667.03
2022-11-09T20:36:50.504Z,100670.66
2022-11-09T20:39:18.457Z,100673.78
2022-11-09T20:41:45.734Z,100682.75
2022-11-09T20:44:13.464Z,100679.34
2022-11-09T20:46:40.569Z,100681.75
2022-11-09T20:49:09.238Z,100679.09
2022-11-09T20:51:36.277Z,100672.31
2022-11-09T20:54:07.243Z,100678.31
2022-11-09T20:56:36.196Z,100683.19
2022-11-09T20:59:03.728Z,100690.25
2022-11-09T21:01:30.890Z,100685.09
2022-11-09T21:03:58.305Z,100690.91
2022-11-09T21:06:28.568Z,100695.34
2022-11-09T21:08:56.907Z,100696.41
2022-11-09T21:11:28.431Z,100691.41
2022-11-09T21:13:56.277Z,100697.84
2022-11-09T21:16:24.034Z,100689.63
2022-11-09T21:18:51.221Z,100689.53
2022-11-09T21:21:24.936Z,100694.06
2022-11-09T21:24:27.281Z,100700.72
2022-11-09T21:27:13.251Z,100694.50
2022-11-09T21:29:52.855Z,100700.94
2022-11-09T21:32:21.636Z,100697.38
2022-11-09T21:34:50.237Z,100700.56
2022-11-09T21:37:17.627Z,100698.91
2022-11-09T21:39:44.892Z,100702.47
2022-11-09T21:42:12.072Z,100704.63
2022-11-09T21:44:39.672Z,100699.75
2022-11-09T21:47:08.138Z,100704.97
2022-11-09T21:49:35.465Z,100707.88
2022-11-09T21:52:03.467Z,100713.09
2022-11-09T21:54:30.778Z,100709.75
2022-11-09T21:56:58.672Z,100702.00
2022-11-09T21:59:25.710Z,100715.34
2022-11-09T22:01:52.836Z,100707.34
2022-11-09T22:04:19.883Z,100709.97
2022-11-09T22:06:47.021Z,100709.75
2022-11-09T22:09:17.955Z,100711.19
2022-11-09T22:12:04.442Z,100722.47
2022-11-09T22:14:50.082Z,100729.53
2022-11-09T22:17:17.072Z,100722.72
2022-11-09T22:20:02.998Z,100722.84
2022-11-09T22:22:31.525Z,100731.31
2022-11-09T22:24:59.222Z,100727.56
2022-11-09T22:27:26.477Z,100736.66
2022-11-09T22:29:53.470Z,100733.53
2022-11-09T22:32:21.130Z,100739.88
2022-11-09T22:34:48.434Z,100740.47
2022-11-09T22:37:15.844Z,100750.63
2022-11-09T22:39:47.197Z,100753.56
2022-11-09T22:42:14.752Z,100754.38
2022-11-09T22:44:41.884Z,100757.84
2022-11-09T22:47:09.081Z,100767.00
2022-11-09T22:49:36.846Z,100762.59
2022-11-09T22:52:05.127Z,100760.59
2022-11-09T22:54:32.259Z,100764.75
2022-11-09T22:56:59.258Z,100772.22
2022-11-09T22:59:26.583Z,100775.94
2022-11-09T23:01:53.627Z,100770.22
2022-11-09T23:04:20.746Z,100780.00
2022-11-09T23:06:47.883Z,100775.69
2022-11-09T23:09:15.191Z,100782.59
2022-11-09T23:11:42.470Z,100785.81
2022-11-09T23:14:09.909Z,100785.72
2022-11-09T23:16:37.003Z,100787.00
2022-11-09T23:19:04.231Z,100784.50
2022-11-09T23:21:37.282Z,100786.28
2022-11-09T23:24:27.731Z,100786.75
2022-11-09T23:26:54.811Z,100790.22
2022-11-09T23:29:21.979Z,100798.19
2022-11-09T23:31:48.980Z,100790.75
2022-11-09T23:34:16.319Z,100804.28
2022-11-09T23:36:43.304Z,100801.91
2022-11-09T23:39:10.529Z,100810.59
2022-11-09T23:41:37.499Z,100808.06
2022-11-09T23:44:04.582Z,100804.75
2022-11-09T23:46:31.630Z,100816.88
2022-11-09T23:48:58.625Z,100819.88
2022-11-09T23:51:25.594Z,100817.72
2022-11-09T23:53:52.639Z,100825.22
2022-11-09T23:56:21.108Z,100826.66
2022-11-09T23:58:51.710Z,100831.06
